Time;durP1;ratioP1;P1;durP2;ratioP2;P2;SDS_P1;SDS_P2;PMS_P1;PMS_P2;Temp;Humidity;BMP_temperature;BMP_pressure;BME280_temperature;BME280_humidity;BME280_pressure;Samples;Min_cycle;Max_cycle;Signal;HPM_P1;HPM_P2
2023/03/04 00:01:46;;;;;;;0.20;0.20;;;;;;;6.88;94.83;101278.09;4948607;29;20043;-52
2023/03/04 00:04:12;;;;;;;5.38;0.50;;;;;;;6.93;94.55;101277.16;4950015;28;20020;-47
2023/03/04 00:06:37;;;;;;;0.28;0.28;;;;;;;7.09;94.71;101284.41;4951346;29;20115;-44
2023/03/04 00:09:03;;;;;;;0.20;0.20;;;;;;;7.05;94.83;101274.63;4951454;28;20042;-47
2023/03/04 00:11:30;;;;;;;1.13;0.73;;;;;;;7.27;93.45;101277.94;4950177;28;20078;-45
2023/03/04 00:13:55;;;;;;;0.20;0.20;;;;;;;7.20;93.23;101280.28;4949196;28;20118;-45
2023/03/04 00:16:21;;;;;;;0.50;0.50;;;;;;;7.22;93.59;101279.97;4950353;28;20102;-45
2023/03/04 00:18:46;;;;;;;1.05;0.95;;;;;;;7.34;92.67;101274.75;4937439;29;20043;-50
2023/03/04 00:21:12;;;;;;;0.30;0.30;;;;;;;7.36;92.36;101271.75;4945526;29;20036;-46
2023/03/04 00:23:40;;;;;;;1.65;0.57;;;;;;;7.08;93.30;101277.44;4944604;29;20406;-45
2023/03/04 00:26:06;;;;;;;0.30;0.30;;;;;;;7.07;94.34;101275.88;4949761;28;20545;-46
2023/03/04 00:28:32;;;;;;;0.20;0.20;;;;;;;7.01;93.86;101269.13;4950122;29;20085;-44
2023/03/04 00:30:57;;;;;;;0.20;0.20;;;;;;;7.25;93.65;101269.44;4934356;29;20035;-46
2023/03/04 00:33:23;;;;;;;1.35;0.38;;;;;;;7.30;92.34;101263.09;4932834;28;20035;-50
2023/03/04 00:35:49;;;;;;;0.20;0.20;;;;;;;7.25;92.18;101253.34;4952557;29;20031;-46
2023/03/04 00:38:14;;;;;;;0.20;0.20;;;;;;;7.24;93.02;101265.16;4937321;28;20037;-45
2023/03/04 00:40:41;;;;;;;0.70;0.65;;;;;;;7.32;92.86;101260.91;4953187;29;20094;-44
2023/03/04 00:43:06;;;;;;;0.17;0.17;;;;;;;7.20;93.03;101266.13;4954706;28;20042;-46
2023/03/04 00:45:32;;;;;;;0.20;0.20;;;;;;;7.11;93.32;101259.97;4953740;28;20031;-45
2023/03/04 00:47:57;;;;;;;0.40;0.40;;;;;;;7.38;92.89;101259.63;4953390;28;20078;-44
2023/03/04 00:50:23;;;;;;;0.20;0.20;;;;;;;7.47;91.88;101257.72;4952001;28;20039;-44
2023/03/04 00:52:48;;;;;;;0.25;0.25;;;;;;;7.31;92.80;101251.28;4955103;28;20039;-44
2023/03/04 00:55:14;;;;;;;0.10;0.10;;;;;;;7.23;93.07;101255.56;4949279;28;20051;-48
2023/03/04 00:57:39;;;;;;;2.72;0.75;;;;;;;7.10;93.86;101253.06;4939231;28;20072;-48
2023/03/04 01:00:06;;;;;;;0.20;0.20;;;;;;;7.16;93.64;101247.22;4928756;29;20031;-47
2023/03/04 01:02:31;;;;;;;0.20;0.20;;;;;;;7.13;93.19;101252.41;4937397;28;20553;-45
2023/03/04 01:04:57;;;;;;;0.85;0.55;;;;;;;7.18;92.80;101250.34;4952021;28;20173;-48
2023/03/04 01:07:22;;;;;;;0.20;0.20;;;;;;;7.49;92.04;101241.34;4947580;28;20042;-53
2023/03/04 01:09:47;;;;;;;0.20;0.20;;;;;;;7.35;91.30;101241.53;4936919;29;20035;-45
2023/03/04 01:12:13;;;;;;;0.30;0.30;;;;;;;7.29;92.48;101240.91;4953240;28;20027;-48
2023/03/04 01:14:38;;;;;;;0.30;0.30;;;;;;;7.29;91.75;101229.41;4934976;28;20036;-45
2023/03/04 01:17:04;;;;;;;0.20;0.20;;;;;;;7.34;92.72;101233.81;4942658;28;20639;-46
2023/03/04 01:19:29;;;;;;;0.20;0.20;;;;;;;7.26;91.91;101225.47;4948681;28;20082;-48
2023/03/04 01:21:55;;;;;;;0.30;0.30;;;;;;;7.20;92.06;101234.75;4934774;29;20227;-49
2023/03/04 01:24:21;;;;;;;0.20;0.20;;;;;;;7.45;91.27;101218.97;4938566;29;20038;-45
2023/03/04 01:26:46;;;;;;;0.20;0.20;;;;;;;7.34;91.60;101229.22;4952896;28;20027;-43
2023/03/04 01:29:13;;;;;;;0.28;0.28;;;;;;;7.37;91.56;101223.25;4938142;28;20737;-45
2023/03/04 01:31:39;;;;;;;0.20;0.20;;;;;;;7.56;90.96;101215.63;4944730;28;20027;-51
2023/03/04 01:34:04;;;;;;;0.20;0.20;;;;;;;7.40;91.11;101211.88;4951280;28;20043;-45
2023/03/04 01:36:30;;;;;;;0.70;0.20;;;;;;;7.51;90.89;101204.28;4936517;28;20031;-49
2023/03/04 01:38:55;;;;;;;0.20;0.20;;;;;;;7.61;90.23;101206.59;4943389;28;20093;-53
2023/03/04 01:41:25;;;;;;;12.77;0.50;;;;;;;7.53;90.21;101212.81;4950774;28;20461;-44
2023/03/04 01:43:51;;;;;;;0.50;0.50;;;;;;;7.21;92.08;101200.72;4935674;29;20061;-47
2023/03/04 01:46:16;;;;;;;0.85;0.85;;;;;;;7.07;92.29;101197.44;4953432;28;20558;-48
2023/03/04 01:48:43;;;;;;;0.10;0.10;;;;;;;7.31;91.66;101205.75;4930215;28;20090;-53
2023/03/04 01:51:15;;;;;;;0.20;0.20;;;;;;;7.39;91.00;101193.44;4953783;29;20023;-47
2023/03/04 01:53:42;;;;;;;0.10;0.10;;;;;;;7.35;91.09;101181.78;4932201;28;20046;-48
2023/03/04 01:56:18;;;;;;;0.20;0.20;;;;;;;7.37;91.90;101191.09;4949899;29;20090;-55
2023/03/04 01:58:44;;;;;;;0.20;0.20;;;;;;;7.45;91.29;101182.25;4940013;29;20648;-47
2023/03/04 02:01:11;;;;;;;0.20;0.20;;;;;;;7.48;90.86;101176.25;4928058;29;20067;-50
2023/03/04 02:03:38;;;;;;;0.30;0.30;;;;;;;7.52;90.86;101173.69;4949458;28;20039;-49
2023/03/04 02:06:03;;;;;;;0.22;0.22;;;;;;;7.40;91.16;101171.69;4949109;28;20059;-45
2023/03/04 02:08:29;;;;;;;0.35;0.35;;;;;;;7.32;91.16;101170.63;4953301;29;20031;-52
2023/03/04 02:10:56;;;;;;;0.20;0.20;;;;;;;7.53;90.64;101169.94;4931379;29;20028;-45
2023/03/04 02:13:21;;;;;;;0.20;0.20;;;;;;;7.52;91.36;101171.03;4936082;29;20039;-48
2023/03/04 02:15:47;;;;;;;0.20;0.20;;;;;;;7.38;91.10;101160.50;4952864;28;20410;-50
2023/03/04 02:18:19;;;;;;;0.20;0.20;;;;;;;7.45;91.54;101166.19;4935761;29;20042;-45
2023/03/04 02:20:53;;;;;;;0.20;0.20;;;;;;;7.51;91.41;101161.44;4952313;28;20058;-45
2023/03/04 02:23:24;;;;;;;0.13;0.13;;;;;;;7.74;90.38;101163.50;4932283;29;20402;-45
2023/03/04 02:26:05;;;;;;;0.20;0.20;;;;;;;7.60;90.80;101164.84;4935661;29;20483;-47
2023/03/04 02:28:31;;;;;;;0.20;0.20;;;;;;;7.46;91.26;101145.50;4940811;29;20114;-44
2023/03/04 02:30:56;;;;;;;0.15;0.15;;;;;;;7.59;90.89;101141.84;4931356;29;20086;-44
2023/03/04 02:33:22;;;;;;;3.13;0.85;;;;;;;7.50;90.91;101143.75;4943299;28;20026;-52
2023/03/04 02:35:47;;;;;;;0.40;0.40;;;;;;;7.42;91.49;101142.69;4932748;28;20391;-45
2023/03/04 02:38:13;;;;;;;0.30;0.30;;;;;;;7.50;92.25;101141.06;4919356;29;20380;-47
2023/03/04 02:40:43;;;;;;;0.20;0.20;;;;;;;7.49;91.67;101134.94;4948425;29;20039;-47
2023/03/04 02:43:11;;;;;;;0.20;0.20;;;;;;;7.58;91.18;101134.91;4952907;28;20043;-44
2023/03/04 02:45:46;;;;;;;0.28;0.28;;;;;;;7.67;91.44;101132.97;4934612;29;20398;-51
2023/03/04 02:48:14;;;;;;;0.20;0.20;;;;;;;7.74;91.28;101134.03;4934968;28;20538;-51
2023/03/04 02:50:44;;;;;;;0.30;0.30;;;;;;;7.64;90.74;101130.94;4935712;29;20118;-44
2023/03/04 02:53:10;;;;;;;0.30;0.30;;;;;;;7.50;91.68;101120.44;4952601;29;20031;-46
2023/03/04 02:55:35;;;;;;;0.20;0.20;;;;;;;7.39;93.20;101119.22;4948435;28;20039;-47
2023/03/04 02:58:01;;;;;;;0.22;0.22;;;;;;;7.40;93.65;101123.47;4939740;29;20027;-47
2023/03/04 03:00:27;;;;;;;0.20;0.20;;;;;;;7.52;93.45;101125.47;4923329;29;20172;-47
2023/03/04 03:02:55;;;;;;;0.20;0.20;;;;;;;7.42;93.25;101129.28;4930899;28;20040;-47
2023/03/04 03:05:27;;;;;;;0.20;0.20;;;;;;;7.51;93.43;101123.91;4947421;28;20482;-47
2023/03/04 03:07:54;;;;;;;0.20;0.20;;;;;;;7.65;92.52;101113.72;4934179;29;20039;-45
2023/03/04 03:10:20;;;;;;;0.20;0.20;;;;;;;7.66;92.61;101118.00;4952236;28;20090;-46
2023/03/04 03:12:46;;;;;;;0.20;0.20;;;;;;;7.56;92.70;101107.63;4936702;29;20126;-49
2023/03/04 03:15:11;;;;;;;0.32;0.32;;;;;;;7.74;92.70;101117.94;4934809;29;20110;-50
2023/03/04 03:17:37;;;;;;;0.30;0.30;;;;;;;7.66;93.09;101112.63;4952086;29;20097;-46
2023/03/04 03:20:03;;;;;;;0.17;0.17;;;;;;;7.53;93.96;101114.41;4935115;29;20061;-44
2023/03/04 03:22:29;;;;;;;0.20;0.20;;;;;;;7.57;93.98;101106.53;4934273;29;20114;-44
2023/03/04 03:24:55;;;;;;;0.10;0.10;;;;;;;7.47;94.65;101112.25;4934177;29;20130;-44
2023/03/04 03:27:20;;;;;;;0.20;0.20;;;;;;;7.54;95.14;101101.81;4932820;29;20031;-48
2023/03/04 03:29:46;;;;;;;0.20;0.20;;;;;;;7.43;94.94;101104.09;4951726;28;20034;-51
2023/03/04 03:32:11;;;;;;;0.30;0.30;;;;;;;7.39;94.65;101099.69;4934907;28;20081;-44
2023/03/04 03:34:36;;;;;;;0.20;0.20;;;;;;;7.29;96.39;101098.94;4942927;28;20039;-45
2023/03/04 03:37:02;;;;;;;0.22;0.22;;;;;;;7.46;95.97;101102.63;4934721;29;20548;-49
2023/03/04 03:39:28;;;;;;;0.40;0.40;;;;;;;7.53;96.09;101103.69;4950257;28;20035;-45
2023/03/04 03:41:53;;;;;;;0.20;0.20;;;;;;;7.54;95.86;101097.25;4940774;29;20395;-48
2023/03/04 03:44:18;;;;;;;0.20;0.20;;;;;;;7.74;95.30;101098.41;4949841;28;20039;-47
2023/03/04 03:46:45;;;;;;;0.20;0.20;;;;;;;7.47;95.46;101094.28;4951065;29;20394;-44
2023/03/04 03:49:11;;;;;;;0.25;0.25;;;;;;;7.36;96.01;101089.59;4951913;29;20046;-49
2023/03/04 03:51:36;;;;;;;0.13;0.13;;;;;;;7.27;96.32;101087.78;4946589;28;20533;-45
2023/03/04 03:54:02;;;;;;;0.20;0.20;;;;;;;7.47;95.88;101085.47;4933211;29;20501;-50
2023/03/04 03:56:27;;;;;;;0.10;0.10;;;;;;;7.52;94.56;101082.59;4935445;28;20497;-53
2023/03/04 03:58:53;;;;;;;0.10;0.10;;;;;;;7.72;94.55;101081.88;4950915;28;20038;-54
2023/03/04 04:01:19;;;;;;;0.20;0.20;;;;;;;7.73;93.86;101088.78;4951309;28;20039;-44
2023/03/04 04:03:44;;;;;;;1.67;0.63;;;;;;;7.83;92.88;101086.53;4937942;29;20659;-47
2023/03/04 04:06:10;;;;;;;0.20;0.20;;;;;;;7.56;93.68;101086.19;4929021;29;20019;-44
2023/03/04 04:08:35;;;;;;;0.20;0.20;;;;;;;7.47;94.16;101077.44;4955239;29;20039;-51
2023/03/04 04:11:01;;;;;;;0.20;0.20;;;;;;;7.77;93.20;101087.03;4952863;28;20031;-44
2023/03/04 04:13:26;;;;;;;0.20;0.20;;;;;;;7.74;93.51;101087.69;4954598;28;20038;-49
2023/03/04 04:15:52;;;;;;;0.20;0.20;;;;;;;7.85;93.35;101070.91;4954554;28;20538;-47
2023/03/04 04:18:18;;;;;;;0.47;0.47;;;;;;;7.65;94.65;101077.00;4954460;28;20106;-50
2023/03/04 04:20:43;;;;;;;0.20;0.20;;;;;;;7.47;96.03;101086.22;4954919;28;20398;-48
2023/03/04 04:23:10;;;;;;;0.20;0.20;;;;;;;7.89;93.61;101079.06;4954409;29;20043;-46
2023/03/04 04:25:35;;;;;;;0.30;0.30;;;;;;;7.49;94.22;101078.66;4952015;28;20067;-45
2023/03/04 04:28:00;;;;;;;0.20;0.20;;;;;;;7.53;94.99;101070.78;4953525;29;20442;-48
2023/03/04 04:30:26;;;;;;;0.20;0.20;;;;;;;7.63;94.25;101076.53;4950966;28;20108;-50
2023/03/04 04:32:51;;;;;;;0.10;0.10;;;;;;;7.77;94.25;101079.78;4950811;28;20039;-44
2023/03/04 04:35:17;;;;;;;0.20;0.20;;;;;;;7.70;93.19;101071.47;4945858;28;20110;-46
2023/03/04 04:37:43;;;;;;;0.20;0.20;;;;;;;7.79;93.11;101077.56;4943783;28;20070;-45
2023/03/04 04:40:09;;;;;;;0.20;0.20;;;;;;;7.94;92.87;101073.50;4931905;28;20051;-44
2023/03/04 04:42:34;;;;;;;0.20;0.20;;;;;;;7.91;92.06;101071.47;4947780;28;20071;-45
2023/03/04 04:45:00;;;;;;;0.20;0.20;;;;;;;7.70;92.53;101057.28;4954308;28;20802;-45
2023/03/04 04:47:25;;;;;;;0.10;0.10;;;;;;;7.57;93.14;101067.13;4955055;29;20406;-47
2023/03/04 04:49:51;;;;;;;0.17;0.17;;;;;;;7.66;93.04;101059.81;4954236;29;20078;-48
2023/03/04 04:52:16;;;;;;;0.20;0.20;;;;;;;7.59;91.98;101064.13;4942454;29;20167;-48
2023/03/04 04:54:42;;;;;;;0.45;0.45;;;;;;;7.56;91.34;101046.81;4953759;28;20035;-45
2023/03/04 04:57:07;;;;;;;0.20;0.20;;;;;;;7.74;91.45;101063.56;4954785;29;20626;-47
2023/03/04 04:59:32;;;;;;;0.20;0.20;;;;;;;7.78;89.91;101059.13;4953983;29;20371;-45
2023/03/04 05:01:58;;;;;;;0.20;0.20;;;;;;;7.80;87.96;101059.59;4947300;28;20458;-49
2023/03/04 05:04:24;;;;;;;0.10;0.10;;;;;;;7.39;87.37;101054.94;4930865;28;20036;-49
2023/03/04 05:06:49;;;;;;;0.10;0.10;;;;;;;7.22;87.05;101049.63;4958017;28;20478;-51
2023/03/04 05:09:15;;;;;;;0.20;0.20;;;;;;;7.24;86.55;101050.91;4947145;28;20090;-44
2023/03/04 05:11:40;;;;;;;0.20;0.20;;;;;;;7.40;85.49;101056.50;4946933;28;20035;-45
2023/03/04 05:14:06;;;;;;;0.30;0.30;;;;;;;7.41;83.89;101055.41;4949914;28;20027;-52
2023/03/04 05:16:31;;;;;;;0.10;0.10;;;;;;;7.19;84.04;101056.44;4950965;28;20183;-47
2023/03/04 05:18:57;;;;;;;0.20;0.20;;;;;;;7.50;83.58;101056.13;4953254;28;20047;-44
2023/03/04 05:21:23;;;;;;;0.20;0.20;;;;;;;7.35;83.00;101051.34;4954001;28;20035;-47
2023/03/04 05:23:48;;;;;;;0.10;0.10;;;;;;;7.25;83.84;101059.72;4954227;28;20076;-50
2023/03/04 05:26:16;;;;;;;0.20;0.20;;;;;;;7.40;83.42;101058.38;4953184;28;20090;-56
2023/03/04 05:28:42;;;;;;;0.20;0.20;;;;;;;7.36;83.72;101055.56;4950372;29;20031;-50
2023/03/04 05:31:08;;;;;;;0.20;0.20;;;;;;;7.42;83.45;101058.84;4945999;28;20379;-45
2023/03/04 05:33:33;;;;;;;0.68;0.68;;;;;;;7.45;83.49;101060.91;4947853;29;20544;-51
2023/03/04 05:35:59;;;;;;;0.20;0.20;;;;;;;7.56;83.54;101062.09;4944809;28;20035;-48
2023/03/04 05:38:24;;;;;;;0.15;0.15;;;;;;;7.52;83.14;101063.84;4953576;28;20402;-54
2023/03/04 05:40:59;;;;;;;0.20;0.20;;;;;;;7.60;83.19;101061.13;4936795;29;20118;-46
2023/03/04 05:43:26;;;;;;;0.20;0.20;;;;;;;7.60;83.23;101063.00;4951925;28;20549;-52
2023/03/04 05:45:52;;;;;;;0.35;0.35;;;;;;;7.56;83.50;101062.88;4953260;29;20545;-49
2023/03/04 05:48:17;;;;;;;2.03;0.70;;;;;;;7.61;83.43;101061.88;4953821;29;20118;-46
2023/03/04 05:50:43;;;;;;;1.40;0.63;;;;;;;7.56;83.32;101060.19;4953024;29;20044;-55
2023/03/04 05:53:08;;;;;;;0.20;0.20;;;;;;;7.49;83.90;101065.25;4953824;29;20035;-44
2023/03/04 05:55:34;;;;;;;0.20;0.20;;;;;;;7.74;83.48;101067.00;4953545;28;20050;-44
2023/03/04 05:57:59;;;;;;;0.50;0.50;;;;;;;7.66;84.09;101073.22;4953535;28;20031;-53
2023/03/04 06:00:27;;;;;;;0.30;0.30;;;;;;;7.41;85.32;101068.78;4950329;29;20513;-44
2023/03/04 06:02:53;;;;;;;0.20;0.20;;;;;;;7.32;85.27;101067.28;4951308;29;20047;-45
2023/03/04 06:05:19;;;;;;;0.30;0.30;;;;;;;7.42;85.37;101066.88;4953076;28;20078;-48
2023/03/04 06:07:45;;;;;;;0.20;0.20;;;;;;;7.66;85.05;101075.13;4945600;28;20035;-46
2023/03/04 06:10:14;;;;;;;0.20;0.20;;;;;;;7.74;84.06;101074.28;4951172;28;20062;-45
2023/03/04 06:12:40;;;;;;;0.20;0.20;;;;;;;7.66;84.21;101067.06;4951865;28;20059;-57
2023/03/04 06:15:08;;;;;;;0.28;0.28;;;;;;;7.69;84.65;101066.41;4951623;28;20035;-49
2023/03/04 06:17:34;;;;;;;0.20;0.20;;;;;;;7.66;84.18;101075.13;4950682;28;20401;-50
2023/03/04 06:19:59;;;;;;;0.10;0.10;;;;;;;7.59;84.24;101067.56;4951618;28;20035;-46
2023/03/04 06:22:25;;;;;;;0.20;0.20;;;;;;;7.25;85.05;101063.19;4952984;28;20031;-49
2023/03/04 06:24:50;;;;;;;0.52;0.52;;;;;;;7.24;86.64;101072.31;4944260;28;20405;-49
2023/03/04 06:27:16;;;;;;;0.20;0.20;;;;;;;7.46;86.53;101070.50;4950247;28;20023;-49
2023/03/04 06:29:41;;;;;;;0.10;0.10;;;;;;;7.49;86.41;101075.22;4950876;28;20439;-46
2023/03/04 06:32:07;;;;;;;0.20;0.20;;;;;;;7.57;86.26;101074.38;4948448;28;20063;-49
2023/03/04 06:34:32;;;;;;;0.20;0.20;;;;;;;7.39;85.00;101076.38;4949408;28;20027;-44
2023/03/04 06:36:59;;;;;;;3.70;1.80;;;;;;;7.41;85.12;101079.50;4945973;28;20035;-45
2023/03/04 06:39:24;;;;;;;0.20;0.20;;;;;;;7.25;85.09;101084.63;4951211;28;20062;-45
2023/03/04 06:41:50;;;;;;;0.65;0.65;;;;;;;7.30;84.94;101081.75;4945724;28;20089;-47
2023/03/04 06:44:15;;;;;;;0.30;0.30;;;;;;;7.23;84.14;101089.50;4939988;29;20023;-47
2023/03/04 06:46:41;;;;;;;0.10;0.10;;;;;;;7.38;83.22;101092.75;4952554;28;20526;-45
2023/03/04 06:49:06;;;;;;;9.18;0.80;;;;;;;7.35;82.68;101096.88;4952577;29;20047;-45
2023/03/04 06:51:32;;;;;;;0.20;0.20;;;;;;;7.49;80.79;101085.94;4949018;29;20039;-50
2023/03/04 06:53:57;;;;;;;0.22;0.22;;;;;;;7.25;80.29;101092.66;4951339;28;20031;-52
2023/03/04 06:56:23;;;;;;;0.40;0.40;;;;;;;7.15;80.17;101095.69;4952027;28;20095;-44
2023/03/04 06:58:48;;;;;;;1.13;0.38;;;;;;;7.16;80.01;101094.56;4943267;28;20712;-47
2023/03/04 07:01:15;;;;;;;6.03;0.60;;;;;;;7.16;80.28;101105.28;4940236;28;24047;-53
2023/03/04 07:03:41;;;;;;;0.60;0.35;;;;;;;7.21;80.06;101107.78;4957325;28;20169;-47
2023/03/04 07:06:08;;;;;;;0.15;0.15;;;;;;;7.43;79.20;101108.66;4949097;28;20545;-48
2023/03/04 07:08:33;;;;;;;0.20;0.20;;;;;;;7.38;79.31;101095.41;4951984;29;20482;-44
2023/03/04 07:10:59;;;;;;;0.30;0.30;;;;;;;7.29;79.66;101101.63;4948863;28;20034;-47
2023/03/04 07:13:24;;;;;;;3.40;0.47;;;;;;;7.35;79.06;101104.13;4934684;29;20039;-49
2023/03/04 07:15:50;;;;;;;0.20;0.20;;;;;;;7.32;79.57;101097.50;4951951;28;20043;-45
2023/03/04 07:18:15;;;;;;;0.30;0.30;;;;;;;7.50;79.06;101104.38;4946396;28;20382;-45
2023/03/04 07:20:40;;;;;;;0.20;0.20;;;;;;;7.39;79.86;101105.84;4951992;28;20894;-47
2023/03/04 07:23:06;;;;;;;0.10;0.10;;;;;;;7.33;80.30;101101.75;4949421;28;20035;-44
2023/03/04 07:25:31;;;;;;;0.40;0.35;;;;;;;7.36;79.95;101106.47;4951024;28;20034;-44
2023/03/04 07:27:57;;;;;;;0.10;0.10;;;;;;;7.30;79.80;101103.19;4946234;28;20047;-49
2023/03/04 07:30:22;;;;;;;0.10;0.10;;;;;;;7.21;79.93;101104.31;4949071;28;20035;-49
2023/03/04 07:32:48;;;;;;;0.10;0.10;;;;;;;7.17;80.48;101106.88;4947346;29;20035;-47
2023/03/04 07:35:13;;;;;;;0.55;0.55;;;;;;;7.22;80.81;101103.19;4948230;28;20043;-46
2023/03/04 07:37:39;;;;;;;2.95;0.40;;;;;;;7.16;80.76;101107.94;4951060;29;20058;-55
2023/03/04 07:40:09;;;;;;;0.20;0.20;;;;;;;7.40;80.77;101117.31;4948263;28;20050;-44
2023/03/04 07:42:36;;;;;;;2.22;0.93;;;;;;;7.43;78.48;101114.00;4951979;28;20505;-44
2023/03/04 07:45:08;;;;;;;0.75;0.75;;;;;;;7.24;77.89;101098.31;4944489;28;20741;-44
2023/03/04 07:47:34;;;;;;;0.20;0.20;;;;;;;7.24;77.82;101115.19;4948400;28;20110;-48
2023/03/04 07:49:59;;;;;;;0.20;0.20;;;;;;;7.42;77.67;101117.78;4946792;29;20102;-45
2023/03/04 07:52:25;;;;;;;0.50;0.50;;;;;;;7.23;77.08;101115.50;4951145;29;20609;-44
2023/03/04 07:54:50;;;;;;;0.30;0.30;;;;;;;7.28;77.57;101121.47;4951609;28;20023;-45
2023/03/04 07:57:16;;;;;;;0.30;0.30;;;;;;;7.35;77.77;101123.66;4950727;29;20039;-50
2023/03/04 07:59:41;;;;;;;0.20;0.20;;;;;;;7.50;76.79;101127.69;4934516;29;20034;-44
2023/03/04 08:02:09;;;;;;;0.20;0.20;;;;;;;7.48;77.23;101125.31;4946279;29;20106;-45
2023/03/04 08:04:34;;;;;;;0.20;0.20;;;;;;;7.12;76.47;101125.75;4950239;28;20019;-49
2023/03/04 08:07:00;;;;;;;0.10;0.10;;;;;;;7.14;75.58;101130.81;4951156;28;20117;-44
2023/03/04 08:09:25;;;;;;;0.10;0.10;;;;;;;7.25;76.30;101122.13;4951485;28;20114;-47
2023/03/04 08:11:51;;;;;;;0.20;0.20;;;;;;;7.34;75.69;101129.34;4948054;29;20019;-51
2023/03/04 08:14:16;;;;;;;0.90;0.90;;;;;;;7.33;75.09;101128.56;4950645;28;20455;-46
2023/03/04 08:16:42;;;;;;;1.65;0.65;;;;;;;7.38;74.75;101136.41;4947620;28;20039;-44
2023/03/04 08:19:07;;;;;;;0.40;0.40;;;;;;;7.35;74.79;101139.72;4944202;28;20613;-50
2023/03/04 08:21:33;;;;;;;0.20;0.20;;;;;;;7.29;75.02;101132.97;4940776;28;20119;-52
2023/03/04 08:24:02;;;;;;;0.10;0.10;;;;;;;7.27;74.55;101132.50;4944509;28;20035;-45
2023/03/04 08:26:32;;;;;;;0.65;0.30;;;;;;;7.43;74.75;101130.88;4940970;28;20036;-46
2023/03/04 08:29:00;;;;;;;0.10;0.10;;;;;;;7.08;74.82;101132.84;4941447;28;20042;-46
2023/03/04 08:31:26;;;;;;;0.30;0.30;;;;;;;7.29;73.59;101139.13;4950761;28;20034;-47
2023/03/04 08:33:52;;;;;;;0.30;0.30;;;;;;;7.39;73.02;101151.38;4941012;28;20036;-47
2023/03/04 08:36:18;;;;;;;0.20;0.20;;;;;;;7.21;73.57;101149.84;4948714;29;20399;-53
2023/03/04 08:38:44;;;;;;;0.35;0.35;;;;;;;7.23;73.83;101151.13;4950181;28;20501;-46
2023/03/04 08:41:10;;;;;;;0.30;0.30;;;;;;;7.12;74.60;101149.88;4951329;29;20039;-48
2023/03/04 08:43:35;;;;;;;5.25;0.45;;;;;;;7.10;75.21;101146.72;4951050;28;20031;-44
2023/03/04 08:46:02;;;;;;;0.20;0.20;;;;;;;7.23;75.19;101140.41;4950789;28;20035;-44
2023/03/04 08:48:27;;;;;;;0.52;0.52;;;;;;;7.42;74.71;101142.69;4948619;29;20788;-47
2023/03/04 08:50:53;;;;;;;1.10;0.30;;;;;;;7.43;74.01;101151.53;4950846;28;20063;-44
2023/03/04 08:53:19;;;;;;;0.55;0.45;;;;;;;7.61;73.83;101150.31;4941138;28;20019;-44
2023/03/04 08:55:45;;;;;;;0.10;0.10;;;;;;;7.62;72.76;101146.56;4948184;28;20070;-45
2023/03/04 08:58:12;;;;;;;0.20;0.20;;;;;;;7.47;73.44;101145.19;4951200;28;20036;-45
2023/03/04 09:00:42;;;;;;;0.20;0.20;;;;;;;7.50;73.03;101143.75;4940314;29;20063;-44
2023/03/04 09:03:07;;;;;;;0.20;0.20;;;;;;;7.39;74.45;101143.34;4954229;28;20057;-46
2023/03/04 09:05:33;;;;;;;0.20;0.20;;;;;;;7.46;74.09;101142.81;4952111;28;20094;-46
2023/03/04 09:07:58;;;;;;;0.15;0.15;;;;;;;7.64;73.09;101147.00;4950661;28;20082;-43
2023/03/04 09:10:24;;;;;;;1.27;0.65;;;;;;;7.51;73.07;101143.44;4953907;28;20408;-47
2023/03/04 09:12:50;;;;;;;0.30;0.30;;;;;;;7.41;74.01;101149.16;4948738;28;20470;-44
2023/03/04 09:15:16;;;;;;;0.22;0.22;;;;;;;7.46;74.12;101142.81;4948813;28;20406;-46
2023/03/04 09:17:42;;;;;;;0.20;0.20;;;;;;;7.61;73.24;101139.59;4949325;28;20043;-45
2023/03/04 09:20:11;;;;;;;0.20;0.20;;;;;;;7.59;73.03;101147.22;4948282;28;20106;-50
2023/03/04 09:22:37;;;;;;;0.30;0.30;;;;;;;7.57;73.54;101147.50;4953537;29;20502;-44
2023/03/04 09:25:04;;;;;;;0.30;0.30;;;;;;;7.74;73.10;101152.78;4965544;28;20124;-44
2023/03/04 09:27:29;;;;;;;0.15;0.15;;;;;;;7.94;71.98;101156.63;4952436;28;20482;-50
2023/03/04 09:29:55;;;;;;;1.45;1.42;;;;;;;7.80;70.79;101142.69;4954224;28;20074;-44
2023/03/04 09:32:20;;;;;;;3.75;1.65;;;;;;;7.56;70.93;101145.94;4935956;29;20031;-44
2023/03/04 09:34:46;;;;;;;0.20;0.20;;;;;;;7.63;71.08;101154.25;4952824;28;20695;-44
2023/03/04 09:37:15;;;;;;;0.40;0.40;;;;;;;7.53;71.37;101135.09;4934887;29;20390;-53
2023/03/04 09:39:40;;;;;;;0.15;0.15;;;;;;;7.37;71.80;101150.13;4938271;29;20031;-44
2023/03/04 09:42:09;;;;;;;0.30;0.30;;;;;;;7.30;70.75;101138.00;4943465;29;20406;-50
2023/03/04 09:44:42;;;;;;;0.20;0.20;;;;;;;7.28;71.25;101142.09;4953262;28;20039;-45
2023/03/04 09:47:15;;;;;;;0.10;0.10;;;;;;;7.46;70.90;101150.88;4953067;28;20466;-45
2023/03/04 09:49:44;;;;;;;0.30;0.30;;;;;;;7.54;71.17;101155.41;4953587;29;20047;-49
2023/03/04 09:52:40;;;;;;;0.52;0.52;;;;;;;7.75;70.74;101149.00;4945812;29;20023;-45
2023/03/04 09:55:24;;;;;;;0.30;0.30;;;;;;;7.79;70.96;101141.09;4951875;28;20038;-45
2023/03/04 09:58:05;;;;;;;0.22;0.22;;;;;;;8.05;70.00;101149.78;4950395;28;20039;-43
2023/03/04 10:00:37;;;;;;;0.20;0.20;;;;;;;8.04;69.48;101150.88;4950788;28;20121;-47
2023/03/04 10:03:08;;;;;;;0.90;0.82;;;;;;;7.99;69.53;101140.38;4951389;29;20098;-46
2023/03/04 10:05:53;;;;;;;0.55;0.43;;;;;;;8.11;68.08;101151.16;4948200;28;20047;-44
2023/03/04 10:08:39;;;;;;;0.20;0.20;;;;;;;8.11;67.75;101151.16;4935873;29;20138;-44
2023/03/04 10:11:40;;;;;;;0.70;0.70;;;;;;;7.94;66.90;101151.25;4951743;28;20398;-47
2023/03/04 10:14:21;;;;;;;0.30;0.30;;;;;;;7.86;67.14;101154.78;4957130;28;20046;-44
2023/03/04 10:16:59;;;;;;;0.22;0.22;;;;;;;7.75;67.71;101149.00;4952981;28;20122;-45
2023/03/04 10:19:36;;;;;;;0.28;0.28;;;;;;;7.80;67.92;101134.66;4947881;28;20382;-44
2023/03/04 10:22:18;;;;;;;0.17;0.17;;;;;;;7.99;67.20;101130.41;4945697;28;20039;-49
2023/03/04 10:24:46;;;;;;;0.50;0.50;;;;;;;8.07;66.89;101142.22;4952420;28;20066;-50
2023/03/04 10:27:16;;;;;;;0.30;0.30;;;;;;;8.09;66.70;101145.34;4933711;29;20037;-47
2023/03/04 10:29:41;;;;;;;0.20;0.20;;;;;;;8.07;66.75;101148.34;4946699;28;20708;-50
2023/03/04 10:32:19;;;;;;;0.45;0.45;;;;;;;8.21;65.98;101148.88;4952613;28;20027;-48
2023/03/04 10:34:45;;;;;;;0.20;0.20;;;;;;;8.13;66.28;101130.16;4952875;28;20031;-48
2023/03/04 10:37:10;;;;;;;0.20;0.20;;;;;;;8.18;66.18;101141.50;4951791;28;20416;-51
2023/03/04 10:39:39;;;;;;;0.40;0.40;;;;;;;8.44;64.98;101157.41;4945382;28;20039;-49
2023/03/04 10:42:22;;;;;;;0.15;0.15;;;;;;;8.55;64.76;101145.19;4949945;28;20055;-51
2023/03/04 10:44:54;;;;;;;1.63;0.35;;;;;;;8.66;63.94;101159.78;4950668;28;20039;-51
2023/03/04 10:47:23;;;;;;;0.20;0.20;;;;;;;8.58;63.33;101157.16;4949930;29;20043;-50
2023/03/04 10:49:56;;;;;;;0.10;0.10;;;;;;;8.54;64.01;101156.25;4950387;29;20364;-51
2023/03/04 10:52:39;;;;;;;0.10;0.10;;;;;;;8.41;64.29;101154.59;4946374;28;20439;-52
2023/03/04 10:55:15;;;;;;;0.40;0.40;;;;;;;8.54;64.67;101156.25;4944496;28;20122;-49
2023/03/04 10:57:43;;;;;;;0.45;0.45;;;;;;;8.62;64.43;101161.56;4951908;28;20114;-48
2023/03/04 11:00:17;;;;;;;0.70;0.43;;;;;;;8.53;64.89;101152.78;4952604;28;20034;-51
2023/03/04 11:02:47;;;;;;;2.55;0.57;;;;;;;8.43;64.61;101153.19;4948013;28;20035;-50
2023/03/04 11:05:24;;;;;;;0.65;0.30;;;;;;;8.47;64.63;101146.03;4949978;28;20035;-50
2023/03/04 11:08:02;;;;;;;0.20;0.20;;;;;;;8.19;65.13;101151.09;4943737;28;20035;-47
2023/03/04 11:10:37;;;;;;;0.40;0.30;;;;;;;8.40;65.30;101145.78;4943955;28;20114;-52
2023/03/04 11:13:12;;;;;;;0.30;0.30;;;;;;;8.53;64.37;101149.31;4952134;29;20031;-50
2023/03/04 11:15:49;;;;;;;0.20;0.20;;;;;;;8.64;63.42;101145.91;4950871;28;20141;-48
2023/03/04 11:18:18;;;;;;;0.13;0.13;;;;;;;8.68;64.21;101149.50;4943841;28;20510;-50
2023/03/04 11:20:48;;;;;;;0.52;0.52;;;;;;;8.67;64.41;101139.84;4949728;28;20019;-53
2023/03/04 11:23:55;;;;;;;0.10;0.10;;;;;;;8.78;64.77;101145.63;4951984;28;20051;-49
2023/03/04 11:27:02;;;;;;;0.20;0.20;;;;;;;8.43;66.09;101150.50;4937518;28;20100;-51
2023/03/04 11:29:47;;;;;;;0.63;0.63;;;;;;;8.54;65.58;101143.63;4918749;28;20058;-52
2023/03/04 11:32:29;;;;;;;0.52;0.52;;;;;;;8.63;64.21;101138.94;4950863;28;20031;-49
2023/03/04 11:35:00;;;;;;;0.32;0.28;;;;;;;8.69;64.45;101142.25;4951145;28;20042;-52
2023/03/04 11:37:34;;;;;;;0.47;0.45;;;;;;;8.67;63.75;101134.50;4951057;28;20122;-49